ADDS METAR Data INFO
IDs: Format: Raw Decoded Include TAF

Data at: 0714 UTC 24 Jun 2018

KPLN 240654Z AUTO 32003KT 8SM -RA OVC090 16/15 A2983 RMK AO2 RAB36 SLP100 P0001 T01610150
KPLN 240554Z AUTO 00000KT 10SM FEW070 OVC090 16/15 A2983 RMK AO2 SLP101 60002 T01560150 10167 20156 53009
KPLN 240454Z AUTO 33003KT 10SM OVC080 16/16 A2982 RMK AO2 SLP097 T01610156 401890078
KPLN 240354Z AUTO 00000KT 10SM OVC075 16/16 A2980 RMK AO2 SLP091 T01610156
KPLN 240254Z AUTO 00000KT 10SM OVC065 16/16 A2980 RMK AO2 SLP092 60002 T01610156 53004
KPLN 240154Z AUTO 00000KT 10SM SCT050 OVC065 17/15 A2980 RMK AO2 SLP089 T01670150
KPLN 240054Z AUTO 16003KT 10SM OVC037 16/16 A2979 RMK AO2 RAE45 SLP089 P0002 T01610156
KPLN 232354Z AUTO 11005KT 4SM -RA BR SCT027 BKN042 OVC075 17/16 A2979 RMK AO2 SLP089 P0011 60032 T01670156 10189 20161 53002
KPLN 232335Z AUTO 10006KT 3SM -RA BR SCT024 BKN037 OVC060 17/16 A2979 RMK AO2 P0008 T01670156
KPLN 232328Z AUTO 11006KT 2SM RA BR BKN026 BKN033 OVC049 17/16 A2979 RMK AO2 P0007 T01670156
KPLN 232320Z AUTO 10005KT 1 3/4SM RA BR SCT026 BKN039 OVC060 16/16 A2979 RMK AO2 P0006 T01610156
KPLN 232311Z AUTO 10006KT 2SM RA BR SCT026 OVC040 16/16 A2979 RMK AO2 P0003 T01610156
KPLN 232254Z AUTO 09009KT 3SM -RA BR FEW021 OVC040 17/16 A2979 RMK AO2 SLP086 P0009 T01670156
KPLN 232227Z AUTO 09004KT 2SM -RA BR FEW007 OVC040 17/16 A2978 RMK AO2 P0006 T01720161
KPLN 232211Z AUTO 11004KT 1 3/4SM RA BR FEW005 OVC037 17/16 A2978 RMK AO2 P0004 T01720161
KPLN 232201Z AUTO 08006KT 2SM RA BR SCT005 BKN035 OVC055 17/16 A2978 RMK AO2 P0002 T01720161
KPLN 232154Z AUTO 08005KT 1 1/2SM RA BR BKN004 BKN011 OVC035 17/16 A2978 RMK AO2 SLP086 P0012 T01720161
KPLN 232147Z AUTO 07005KT 1 1/2SM +RA BR BKN006 BKN012 OVC035 17/16 A2978 RMK AO2 P0009 T01720161
KPLN 232130Z AUTO 07007KT 2SM -RA BR OVC008 17/17 A2978 RMK AO2 CIG 003V010 P0003 T01720167
KPLN 232054Z AUTO 07007KT 10SM -RA OVC008 18/16 A2978 RMK AO2 RAB36 CIG 007V014 SLP088 P0000 60000 T01780161 53010
KPLN 231954Z AUTO 08007KT 10SM OVC008 18/16 A2976 RMK AO2 CIG 007V012 SLP081 T01780161
KPLN 231854Z AUTO 07010KT 10SM OVC008 18/17 A2975 RMK AO2 RAE28 CIG 006V013 SLP077 P0000 T01830167
KPLN 231754Z AUTO 10009KT 10SM -RA OVC009 17/16 A2975 RMK AO2 CIG 006V012 SLP077 P0000 60014 T01720161 10183 20144 58010
KPLN 231654Z AUTO VRB06KT 4SM -RA BR OVC005 17/16 A2977 RMK AO2 CIG 004V009 SLP083 P0004 T01720161
KPLN 231621Z AUTO 06005KT 3SM -RA BR BKN005 OVC017 16/16 A2979 RMK AO2 P0002 T01610156
KPLN 231602Z AUTO 07005KT 2 1/2SM -RA BR BKN006 OVC015 16/15 A2979 RMK AO2 P0001 T01610150
KPLN 231554Z AUTO 04004KT 3SM -RA BR SCT008 OVC015 16/15 A2979 RMK AO2 SLP089 P0007 T01610150
KPLN 231541Z AUTO 06005KT 4SM -RA BR SCT009 OVC015 16/15 A2978 RMK AO2 P0006 T01560150
KPLN 231536Z AUTO 06008KT 3SM -RA BR BKN009 OVC013 16/14 A2978 RMK AO2 P0006 T01560144
KPLN 231526Z AUTO 05007KT 2 1/2SM RA BR OVC013 16/14 A2979 RMK AO2 P0003 T01560144
KPLN 231503Z AUTO 05005KT 8SM -RA OVC009 16/14 A2978 RMK AO2 P0000 T01610144
KPLN 231454Z AUTO 05005KT 9SM -RA OVC010 16/14 A2978 RMK AO2 RAE25B53 SLP085 P0000 60003 T01610144 56003
KPLN 231404Z AUTO 07004KT 6SM -RA BR FEW009 BKN012 OVC027 16/14 A2978 RMK AO2 P0000 T01610144
KPLN 231354Z AUTO 06004KT 4SM -RA BR SCT012 BKN025 OVC039 16/14 A2979 RMK AO2 SLP086 P0003 T01560144
KPLN 231154Z AUTO 36004KT 5SM -RA BR OVC011 13/12 A2979 RMK AO2 RAB01 SLP089 P0001 60001 70001 T01330122 10139 20078 51007
KPLN 231054Z AUTO 02005KT 10SM BKN013 BKN046 OVC065 14/11 A2979 RMK AO2 SLP086 T01390106
KPLN 231051Z AUTO 02006KT 10SM BKN013 BKN046 OVC065 14/11 A2979 RMK AO2
KPLN 230954Z AUTO 00000KT 10SM BKN065 10/08 A2977 RMK AO2 SLP081 T01000083
KPLN 230654Z AUTO 00000KT 10SM CLR 08/07 A2981 RMK AO2 SLP095 T00830072
KPLN 230554Z AUTO 00000KT 10SM CLR 09/07 A2983 RMK AO2 SLP101 T00940072 10211 20083 58008
KPLN 230454Z AUTO 00000KT 10SM CLR 09/07 A2984 RMK AO2 SLP105 T00940072 402560028
KPLN 230354Z AUTO 12003KT 10SM CLR 10/07 A2984 RMK AO2 SLP106 T01000067
KPLN 230254Z AUTO 10005KT 10SM CLR 15/07 A2985 RMK AO2 SLP108 T01500067 55003
KPLN 230154Z AUTO 08005KT 10SM CLR 16/07 A2985 RMK AO2 SLP107 T01610067
KPLN 230054Z AUTO 09010KT 10SM CLR 19/06 A2986 RMK AO2 SLP110 T01890061
KPLN 222254Z AUTO 07012KT 10SM CLR 23/08 A2987 RMK AO2 SLP116 T02280078
KPLN 222154Z AUTO 07011G16KT 10SM CLR 23/08 A2988 RMK AO2 SLP120 T02330078
KPLN 222054Z AUTO 08013KT 10SM CLR 24/07 A2989 RMK AO2 SLP121 T02390072 56013
KPLN 221954Z AUTO 08013G19KT 10SM CLR 23/08 A2990 RMK AO2 SLP125 T02330083